sensor_id;sensor_type;location;lat;lon;timestamp;P1;durP1;ratioP1;P2;durP2;ratioP2
20090;SDS011;10205;49.678;6.560;2023-06-24T00:02:13;3.30;;;2.10;;
20090;SDS011;10205;49.678;6.560;2023-06-24T00:04:42;1.92;;;1.80;;
20090;SDS011;10205;49.678;6.560;2023-06-24T00:07:09;1.75;;;1.65;;
20090;SDS011;10205;49.678;6.560;2023-06-24T00:09:36;2.05;;;1.85;;
20090;SDS011;10205;49.678;6.560;2023-06-24T00:12:05;1.80;;;1.70;;
20090;SDS011;10205;49.678;6.560;2023-06-24T00:14:33;2.00;;;1.70;;
20090;SDS011;10205;49.678;6.560;2023-06-24T00:17:01;1.77;;;1.67;;
20090;SDS011;10205;49.678;6.560;2023-06-24T00:19:29;2.33;;;2.00;;
20090;SDS011;10205;49.678;6.560;2023-06-24T00:21:58;2.00;;;1.77;;
20090;SDS011;10205;49.678;6.560;2023-06-24T00:24:28;2.20;;;2.00;;
20090;SDS011;10205;49.678;6.560;2023-06-24T00:26:56;1.98;;;1.77;;
20090;SDS011;10205;49.678;6.560;2023-06-24T00:29:23;2.00;;;1.77;;
20090;SDS011;10205;49.678;6.560;2023-06-24T00:31:50;1.67;;;1.58;;
20090;SDS011;10205;49.678;6.560;2023-06-24T00:34:17;2.20;;;2.00;;
20090;SDS011;10205;49.678;6.560;2023-06-24T00:36:45;2.45;;;1.95;;
20090;SDS011;10205;49.678;6.560;2023-06-24T00:39:14;2.13;;;1.92;;
20090;SDS011;10205;49.678;6.560;2023-06-24T00:41:41;1.77;;;1.65;;
20090;SDS011;10205;49.678;6.560;2023-06-24T00:44:09;2.13;;;1.92;;
20090;SDS011;10205;49.678;6.560;2023-06-24T00:46:36;1.80;;;1.65;;
20090;SDS011;10205;49.678;6.560;2023-06-24T00:49:05;1.80;;;1.70;;
20090;SDS011;10205;49.678;6.560;2023-06-24T00:51:33;2.53;;;2.00;;
20090;SDS011;10205;49.678;6.560;2023-06-24T00:54:01;1.77;;;1.67;;
20090;SDS011;10205;49.678;6.560;2023-06-24T00:56:31;2.30;;;1.73;;
20090;SDS011;10205;49.678;6.560;2023-06-24T00:59:03;2.10;;;1.80;;
20090;SDS011;10205;49.678;6.560;2023-06-24T01:04:33;2.03;;;1.77;;
20090;SDS011;10205;49.678;6.560;2023-06-24T01:07:02;1.83;;;1.60;;
20090;SDS011;10205;49.678;6.560;2023-06-24T01:09:31;1.88;;;1.77;;
20090;SDS011;10205;49.678;6.560;2023-06-24T01:12:00;2.80;;;1.90;;
20090;SDS011;10205;49.678;6.560;2023-06-24T01:14:27;4.03;;;2.10;;
20090;SDS011;10205;49.678;6.560;2023-06-24T01:16:56;1.83;;;1.70;;
20090;SDS011;10205;49.678;6.560;2023-06-24T01:19:40;1.83;;;1.70;;
20090;SDS011;10205;49.678;6.560;2023-06-24T01:22:37;2.10;;;1.90;;
20090;SDS011;10205;49.678;6.560;2023-06-24T01:26:07;2.20;;;1.88;;
20090;SDS011;10205;49.678;6.560;2023-06-24T01:28:55;2.38;;;2.17;;
20090;SDS011;10205;49.678;6.560;2023-06-24T01:32:03;2.00;;;1.80;;
20090;SDS011;10205;49.678;6.560;2023-06-24T01:34:40;2.10;;;1.80;;
20090;SDS011;10205;49.678;6.560;2023-06-24T01:37:16;2.53;;;1.67;;
20090;SDS011;10205;49.678;6.560;2023-06-24T01:39:52;2.60;;;1.80;;
20090;SDS011;10205;49.678;6.560;2023-06-24T01:42:35;1.70;;;1.60;;
20090;SDS011;10205;49.678;6.560;2023-06-24T01:45:08;2.08;;;1.58;;
20090;SDS011;10205;49.678;6.560;2023-06-24T01:47:43;1.85;;;1.67;;
20090;SDS011;10205;49.678;6.560;2023-06-24T01:50:13;1.60;;;1.50;;
20090;SDS011;10205;49.678;6.560;2023-06-24T01:52:46;2.10;;;1.90;;
20090;SDS011;10205;49.678;6.560;2023-06-24T01:55:19;1.98;;;1.73;;
20090;SDS011;10205;49.678;6.560;2023-06-24T01:57:49;1.80;;;1.70;;
20090;SDS011;10205;49.678;6.560;2023-06-24T02:00:18;2.13;;;1.92;;
20090;SDS011;10205;49.678;6.560;2023-06-24T02:02:49;2.05;;;1.85;;
20090;SDS011;10205;49.678;6.560;2023-06-24T02:05:18;2.10;;;1.90;;
20090;SDS011;10205;49.678;6.560;2023-06-24T02:07:47;2.15;;;1.88;;
20090;SDS011;10205;49.678;6.560;2023-06-24T02:10:18;3.08;;;1.60;;
20090;SDS011;10205;49.678;6.560;2023-06-24T02:12:48;1.75;;;1.65;;
20090;SDS011;10205;49.678;6.560;2023-06-24T02:15:20;2.03;;;1.73;;
20090;SDS011;10205;49.678;6.560;2023-06-24T02:17:51;1.80;;;1.70;;
20090;SDS011;10205;49.678;6.560;2023-06-24T02:20:21;2.25;;;1.95;;
20090;SDS011;10205;49.678;6.560;2023-06-24T02:22:52;2.13;;;1.92;;
20090;SDS011;10205;49.678;6.560;2023-06-24T02:25:20;1.65;;;1.55;;
20090;SDS011;10205;49.678;6.560;2023-06-24T02:27:49;2.85;;;1.60;;
20090;SDS011;10205;49.678;6.560;2023-06-24T02:30:18;1.73;;;1.50;;
20090;SDS011;10205;49.678;6.560;2023-06-24T02:32:47;2.08;;;1.98;;
20090;SDS011;10205;49.678;6.560;2023-06-24T02:35:16;2.08;;;1.73;;
20090;SDS011;10205;49.678;6.560;2023-06-24T02:37:43;2.38;;;2.17;;
20090;SDS011;10205;49.678;6.560;2023-06-24T02:40:11;2.58;;;1.92;;
20090;SDS011;10205;49.678;6.560;2023-06-24T02:42:39;1.92;;;1.75;;
20090;SDS011;10205;49.678;6.560;2023-06-24T02:45:06;2.22;;;2.00;;
20090;SDS011;10205;49.678;6.560;2023-06-24T02:47:35;1.42;;;1.33;;
20090;SDS011;10205;49.678;6.560;2023-06-24T02:50:04;2.47;;;2.00;;
20090;SDS011;10205;49.678;6.560;2023-06-24T02:52:36;1.80;;;1.70;;
20090;SDS011;10205;49.678;6.560;2023-06-24T02:55:04;2.30;;;2.10;;
20090;SDS011;10205;49.678;6.560;2023-06-24T02:57:34;2.45;;;2.10;;
20090;SDS011;10205;49.678;6.560;2023-06-24T03:00:02;2.10;;;1.90;;
20090;SDS011;10205;49.678;6.560;2023-06-24T03:02:33;2.00;;;1.80;;
20090;SDS011;10205;49.678;6.560;2023-06-24T03:05:02;2.80;;;1.80;;
20090;SDS011;10205;49.678;6.560;2023-06-24T03:07:31;1.80;;;1.70;;
20090;SDS011;10205;49.678;6.560;2023-06-24T03:10:01;1.92;;;1.70;;
20090;SDS011;10205;49.678;6.560;2023-06-24T03:12:30;5.55;;;2.10;;
20090;SDS011;10205;49.678;6.560;2023-06-24T03:14:57;2.20;;;2.00;;
20090;SDS011;10205;49.678;6.560;2023-06-24T03:17:25;1.83;;;1.73;;
20090;SDS011;10205;49.678;6.560;2023-06-24T03:19:53;2.20;;;1.85;;
20090;SDS011;10205;49.678;6.560;2023-06-24T03:22:21;2.08;;;1.90;;
20090;SDS011;10205;49.678;6.560;2023-06-24T03:24:48;2.15;;;1.95;;
20090;SDS011;10205;49.678;6.560;2023-06-24T03:27:18;2.03;;;1.75;;
20090;SDS011;10205;49.678;6.560;2023-06-24T03:29:45;2.28;;;1.90;;
20090;SDS011;10205;49.678;6.560;2023-06-24T03:32:12;2.00;;;1.80;;
20090;SDS011;10205;49.678;6.560;2023-06-24T03:34:39;1.95;;;1.80;;
20090;SDS011;10205;49.678;6.560;2023-06-24T03:37:06;2.28;;;2.03;;
20090;SDS011;10205;49.678;6.560;2023-06-24T03:39:34;2.40;;;2.03;;
20090;SDS011;10205;49.678;6.560;2023-06-24T03:42:01;3.38;;;1.63;;
20090;SDS011;10205;49.678;6.560;2023-06-24T03:44:30;2.05;;;1.90;;
20090;SDS011;10205;49.678;6.560;2023-06-24T03:46:57;1.60;;;1.50;;
20090;SDS011;10205;49.678;6.560;2023-06-24T03:49:24;1.92;;;1.58;;
20090;SDS011;10205;49.678;6.560;2023-06-24T03:51:51;2.40;;;2.20;;
20090;SDS011;10205;49.678;6.560;2023-06-24T03:54:18;2.42;;;1.60;;
20090;SDS011;10205;49.678;6.560;2023-06-24T03:56:46;1.90;;;1.75;;
20090;SDS011;10205;49.678;6.560;2023-06-24T03:59:13;3.00;;;1.90;;
20090;SDS011;10205;49.678;6.560;2023-06-24T04:01:42;2.20;;;2.00;;
20090;SDS011;10205;49.678;6.560;2023-06-24T04:04:09;2.00;;;1.60;;
20090;SDS011;10205;49.678;6.560;2023-06-24T04:06:36;1.80;;;1.70;;
20090;SDS011;10205;49.678;6.560;2023-06-24T04:09:03;1.90;;;1.80;;
20090;SDS011;10205;49.678;6.560;2023-06-24T04:11:31;2.55;;;1.65;;
20090;SDS011;10205;49.678;6.560;2023-06-24T04:13:58;5.10;;;1.70;;
20090;SDS011;10205;49.678;6.560;2023-06-24T04:16:27;1.67;;;1.58;;
20090;SDS011;10205;49.678;6.560;2023-06-24T04:18:55;1.77;;;1.63;;
20090;SDS011;10205;49.678;6.560;2023-06-24T04:21:22;1.90;;;1.80;;
20090;SDS011;10205;49.678;6.560;2023-06-24T04:23:50;2.03;;;1.83;;
20090;SDS011;10205;49.678;6.560;2023-06-24T04:26:18;2.90;;;1.70;;
20090;SDS011;10205;49.678;6.560;2023-06-24T04:28:45;2.13;;;1.90;;
20090;SDS011;10205;49.678;6.560;2023-06-24T04:31:12;2.45;;;2.25;;
20090;SDS011;10205;49.678;6.560;2023-06-24T04:33:39;2.08;;;1.85;;
20090;SDS011;10205;49.678;6.560;2023-06-24T04:36:08;2.33;;;1.83;;
20090;SDS011;10205;49.678;6.560;2023-06-24T04:38:35;1.88;;;1.58;;
20090;SDS011;10205;49.678;6.560;2023-06-24T04:41:02;1.63;;;1.52;;
20090;SDS011;10205;49.678;6.560;2023-06-24T04:43:29;1.77;;;1.67;;
20090;SDS011;10205;49.678;6.560;2023-06-24T04:45:57;1.67;;;1.55;;
20090;SDS011;10205;49.678;6.560;2023-06-24T04:48:24;1.92;;;1.80;;
20090;SDS011;10205;49.678;6.560;2023-06-24T04:50:51;2.65;;;2.03;;
20090;SDS011;10205;49.678;6.560;2023-06-24T04:53:21;2.10;;;1.90;;
20090;SDS011;10205;49.678;6.560;2023-06-24T04:55:48;2.03;;;1.83;;
20090;SDS011;10205;49.678;6.560;2023-06-24T04:58:15;1.65;;;1.55;;
20090;SDS011;10205;49.678;6.560;2023-06-24T05:00:43;2.35;;;1.75;;
20090;SDS011;10205;49.678;6.560;2023-06-24T05:03:10;1.88;;;1.58;;
20090;SDS011;10205;49.678;6.560;2023-06-24T05:05:37;4.15;;;2.45;;
20090;SDS011;10205;49.678;6.560;2023-06-24T05:08:05;1.85;;;1.75;;
20090;SDS011;10205;49.678;6.560;2023-06-24T05:10:34;2.33;;;2.13;;
20090;SDS011;10205;49.678;6.560;2023-06-24T05:13:01;2.42;;;1.92;;
20090;SDS011;10205;49.678;6.560;2023-06-24T05:15:28;1.88;;;1.75;;
20090;SDS011;10205;49.678;6.560;2023-06-24T05:17:55;2.17;;;2.00;;
20090;SDS011;10205;49.678;6.560;2023-06-24T05:20:22;1.70;;;1.60;;
20090;SDS011;10205;49.678;6.560;2023-06-24T05:22:50;3.35;;;2.03;;
20090;SDS011;10205;49.678;6.560;2023-06-24T05:25:17;2.70;;;1.90;;
20090;SDS011;10205;49.678;6.560;2023-06-24T05:27:46;2.60;;;1.90;;
20090;SDS011;10205;49.678;6.560;2023-06-24T05:30:14;2.83;;;2.10;;
20090;SDS011;10205;49.678;6.560;2023-06-24T05:32:59;1.90;;;1.80;;
20090;SDS011;10205;49.678;6.560;2023-06-24T05:35:26;3.33;;;1.67;;
20090;SDS011;10205;49.678;6.560;2023-06-24T05:37:54;1.80;;;1.70;;
20090;SDS011;10205;49.678;6.560;2023-06-24T05:40:21;2.30;;;2.00;;
20090;SDS011;10205;49.678;6.560;2023-06-24T05:42:49;4.65;;;2.28;;
20090;SDS011;10205;49.678;6.560;2023-06-24T05:45:17;2.53;;;1.85;;
20090;SDS011;10205;49.678;6.560;2023-06-24T05:47:44;2.00;;;1.77;;
20090;SDS011;10205;49.678;6.560;2023-06-24T05:50:12;3.05;;;1.85;;
20090;SDS011;10205;49.678;6.560;2023-06-24T05:52:39;2.30;;;2.10;;
20090;SDS011;10205;49.678;6.560;2023-06-24T05:55:06;2.30;;;2.10;;
20090;SDS011;10205;49.678;6.560;2023-06-24T05:57:34;1.92;;;1.75;;
20090;SDS011;10205;49.678;6.560;2023-06-24T06:00:03;2.20;;;1.90;;
20090;SDS011;10205;49.678;6.560;2023-06-24T06:02:32;2.67;;;1.90;;
20090;SDS011;10205;49.678;6.560;2023-06-24T06:04:59;2.00;;;1.90;;
20090;SDS011;10205;49.678;6.560;2023-06-24T06:07:27;2.80;;;1.92;;
20090;SDS011;10205;49.678;6.560;2023-06-24T06:09:54;1.80;;;1.60;;
20090;SDS011;10205;49.678;6.560;2023-06-24T06:12:21;3.00;;;2.05;;
20090;SDS011;10205;49.678;6.560;2023-06-24T06:14:48;3.78;;;2.20;;
20090;SDS011;10205;49.678;6.560;2023-06-24T06:17:17;2.10;;;1.63;;
20090;SDS011;10205;49.678;6.560;2023-06-24T06:19:44;2.15;;;1.95;;
20090;SDS011;10205;49.678;6.560;2023-06-24T06:22:11;2.15;;;1.95;;
20090;SDS011;10205;49.678;6.560;2023-06-24T06:24:40;2.00;;;1.80;;
20090;SDS011;10205;49.678;6.560;2023-06-24T06:27:09;2.40;;;2.20;;
20090;SDS011;10205;49.678;6.560;2023-06-24T06:29:36;2.33;;;2.00;;
20090;SDS011;10205;49.678;6.560;2023-06-24T06:32:04;2.20;;;2.00;;
20090;SDS011;10205;49.678;6.560;2023-06-24T06:34:33;2.25;;;2.05;;
20090;SDS011;10205;49.678;6.560;2023-06-24T06:37:01;2.33;;;2.13;;
20090;SDS011;10205;49.678;6.560;2023-06-24T06:39:29;3.10;;;2.10;;
20090;SDS011;10205;49.678;6.560;2023-06-24T06:41:56;2.85;;;2.20;;
20090;SDS011;10205;49.678;6.560;2023-06-24T06:44:23;3.25;;;2.15;;
20090;SDS011;10205;49.678;6.560;2023-06-24T06:46:51;1.90;;;1.80;;
20090;SDS011;10205;49.678;6.560;2023-06-24T06:49:18;2.10;;;1.90;;
20090;SDS011;10205;49.678;6.560;2023-06-24T06:51:46;2.22;;;1.98;;
20090;SDS011;10205;49.678;6.560;2023-06-24T06:54:14;4.00;;;2.17;;
20090;SDS011;10205;49.678;6.560;2023-06-24T06:56:41;4.18;;;2.15;;
20090;SDS011;10205;49.678;6.560;2023-06-24T06:59:08;2.72;;;2.33;;
20090;SDS011;10205;49.678;6.560;2023-06-24T07:01:36;2.78;;;2.30;;
20090;SDS011;10205;49.678;6.560;2023-06-24T07:04:03;2.53;;;2.05;;
20090;SDS011;10205;49.678;6.560;2023-06-24T07:06:30;2.67;;;2.17;;
20090;SDS011;10205;49.678;6.560;2023-06-24T07:09:00;3.47;;;2.20;;
20090;SDS011;10205;49.678;6.560;2023-06-24T07:11:27;4.53;;;2.58;;
20090;SDS011;10205;49.678;6.560;2023-06-24T07:13:54;2.50;;;2.30;;
20090;SDS011;10205;49.678;6.560;2023-06-24T07:16:21;2.78;;;2.58;;
20090;SDS011;10205;49.678;6.560;2023-06-24T07:18:49;2.30;;;2.10;;
20090;SDS011;10205;49.678;6.560;2023-06-24T07:21:16;3.03;;;2.20;;
20090;SDS011;10205;49.678;6.560;2023-06-24T07:23:43;2.78;;;2.47;;
20090;SDS011;10205;49.678;6.560;2023-06-24T07:26:12;2.92;;;2.35;;
20090;SDS011;10205;49.678;6.560;2023-06-24T07:28:39;2.45;;;2.17;;
20090;SDS011;10205;49.678;6.560;2023-06-24T07:31:06;2.40;;;2.20;;
20090;SDS011;10205;49.678;6.560;2023-06-24T07:33:33;2.60;;;2.40;;
20090;SDS011;10205;49.678;6.560;2023-06-24T07:36:02;2.30;;;2.10;;
20090;SDS011;10205;49.678;6.560;2023-06-24T07:41:17;2.70;;;2.50;;
20090;SDS011;10205;49.678;6.560;2023-06-24T07:43:44;2.90;;;2.30;;
20090;SDS011;10205;49.678;6.560;2023-06-24T07:46:11;2.28;;;2.08;;
20090;SDS011;10205;49.678;6.560;2023-06-24T07:48:39;2.55;;;2.28;;
20090;SDS011;10205;49.678;6.560;2023-06-24T07:51:06;4.13;;;3.20;;
20090;SDS011;10205;49.678;6.560;2023-06-24T07:53:34;3.28;;;2.97;;
20090;SDS011;10205;49.678;6.560;2023-06-24T07:56:01;3.20;;;2.90;;
20090;SDS011;10205;49.678;6.560;2023-06-24T07:58:30;2.67;;;2.45;;
20090;SDS011;10205;49.678;6.560;2023-06-24T08:00:57;6.78;;;3.20;;
20090;SDS011;10205;49.678;6.560;2023-06-24T08:03:24;4.53;;;2.92;;
20090;SDS011;10205;49.678;6.560;2023-06-24T08:05:51;6.72;;;2.85;;
20090;SDS011;10205;49.678;6.560;2023-06-24T08:08:18;3.65;;;3.03;;
20090;SDS011;10205;49.678;6.560;2023-06-24T08:10:46;3.90;;;3.00;;
20090;SDS011;10205;49.678;6.560;2023-06-24T08:13:13;3.60;;;3.22;;
20090;SDS011;10205;49.678;6.560;2023-06-24T08:15:42;3.97;;;3.15;;
20090;SDS011;10205;49.678;6.560;2023-06-24T08:18:10;5.22;;;3.08;;
20090;SDS011;10205;49.678;6.560;2023-06-24T08:20:37;3.17;;;2.92;;
20090;SDS011;10205;49.678;6.560;2023-06-24T08:23:05;3.92;;;3.10;;
20090;SDS011;10205;49.678;6.560;2023-06-24T08:25:32;3.53;;;3.15;;
20090;SDS011;10205;49.678;6.560;2023-06-24T08:27:59;3.35;;;3.05;;
20090;SDS011;10205;49.678;6.560;2023-06-24T08:30:27;3.58;;;3.28;;
20090;SDS011;10205;49.678;6.560;2023-06-24T08:32:55;3.80;;;3.47;;
20090;SDS011;10205;49.678;6.560;2023-06-24T08:35:23;3.47;;;2.80;;
20090;SDS011;10205;49.678;6.560;2023-06-24T08:37:50;4.07;;;2.88;;
20090;SDS011;10205;49.678;6.560;2023-06-24T08:40:17;4.63;;;3.30;;
20090;SDS011;10205;49.678;6.560;2023-06-24T08:42:44;6.25;;;3.05;;
20090;SDS011;10205;49.678;6.560;2023-06-24T08:45:12;6.00;;;3.30;;
20090;SDS011;10205;49.678;6.560;2023-06-24T08:47:39;3.67;;;3.10;;
20090;SDS011;10205;49.678;6.560;2023-06-24T08:50:11;3.83;;;3.13;;
20090;SDS011;10205;49.678;6.560;2023-06-24T08:52:41;2.70;;;2.50;;
20090;SDS011;10205;49.678;6.560;2023-06-24T08:55:16;3.67;;;3.08;;
20090;SDS011;10205;49.678;6.560;2023-06-24T08:57:48;3.45;;;3.15;;
20090;SDS011;10205;49.678;6.560;2023-06-24T09:00:16;2.95;;;2.63;;
20090;SDS011;10205;49.678;6.560;2023-06-24T09:02:44;3.40;;;2.83;;
20090;SDS011;10205;49.678;6.560;2023-06-24T09:05:13;2.75;;;2.50;;
20090;SDS011;10205;49.678;6.560;2023-06-24T09:07:40;3.40;;;3.00;;
20090;SDS011;10205;49.678;6.560;2023-06-24T09:10:08;3.40;;;2.85;;
20090;SDS011;10205;49.678;6.560;2023-06-24T09:16:16;2.50;;;2.30;;
20090;SDS011;10205;49.678;6.560;2023-06-24T09:18:47;2.58;;;2.38;;
20090;SDS011;10205;49.678;6.560;2023-06-24T09:21:23;3.25;;;2.95;;
20090;SDS011;10205;49.678;6.560;2023-06-24T09:23:53;2.97;;;2.67;;
20090;SDS011;10205;49.678;6.560;2023-06-24T09:26:22;3.50;;;3.20;;
20090;SDS011;10205;49.678;6.560;2023-06-24T09:28:50;3.85;;;3.05;;
20090;SDS011;10205;49.678;6.560;2023-06-24T09:31:18;3.42;;;2.80;;
20090;SDS011;10205;49.678;6.560;2023-06-24T09:33:45;3.38;;;2.75;;
20090;SDS011;10205;49.678;6.560;2023-06-24T09:36:13;6.75;;;3.80;;
20090;SDS011;10205;49.678;6.560;2023-06-24T09:38:43;4.57;;;3.13;;
20090;SDS011;10205;49.678;6.560;2023-06-24T09:41:10;5.15;;;3.20;;
20090;SDS011;10205;49.678;6.560;2023-06-24T09:43:38;5.22;;;3.30;;
20090;SDS011;10205;49.678;6.560;2023-06-24T09:46:06;3.90;;;2.90;;
20090;SDS011;10205;49.678;6.560;2023-06-24T09:48:34;9.07;;;3.05;;
20090;SDS011;10205;49.678;6.560;2023-06-24T09:51:02;5.43;;;3.70;;
20090;SDS011;10205;49.678;6.560;2023-06-24T09:53:30;4.65;;;3.15;;
20090;SDS011;10205;49.678;6.560;2023-06-24T09:56:00;3.72;;;2.63;;
20090;SDS011;10205;49.678;6.560;2023-06-24T09:58:31;4.03;;;2.70;;
20090;SDS011;10205;49.678;6.560;2023-06-24T10:01:02;3.58;;;3.13;;
20090;SDS011;10205;49.678;6.560;2023-06-24T10:03:32;3.20;;;2.63;;
20090;SDS011;10205;49.678;6.560;2023-06-24T10:06:02;3.38;;;3.10;;
20090;SDS011;10205;49.678;6.560;2023-06-24T10:08:37;5.32;;;3.25;;
20090;SDS011;10205;49.678;6.560;2023-06-24T10:11:06;6.38;;;3.33;;
20090;SDS011;10205;49.678;6.560;2023-06-24T10:13:34;4.72;;;3.00;;
20090;SDS011;10205;49.678;6.560;2023-06-24T10:16:01;3.17;;;2.88;;
20090;SDS011;10205;49.678;6.560;2023-06-24T10:18:32;9.40;;;3.50;;
20090;SDS011;10205;49.678;6.560;2023-06-24T10:21:01;4.30;;;3.20;;
20090;SDS011;10205;49.678;6.560;2023-06-24T10:23:30;5.10;;;3.28;;
20090;SDS011;10205;49.678;6.560;2023-06-24T10:25:59;7.07;;;3.42;;
20090;SDS011;10205;49.678;6.560;2023-06-24T10:28:28;28.50;;;4.70;;
20090;SDS011;10205;49.678;6.560;2023-06-24T10:31:52;9.80;;;4.40;;
20090;SDS011;10205;49.678;6.560;2023-06-24T10:34:24;6.85;;;3.58;;
20090;SDS011;10205;49.678;6.560;2023-06-24T10:36:58;8.43;;;3.72;;
20090;SDS011;10205;49.678;6.560;2023-06-24T10:39:37;8.88;;;3.85;;
20090;SDS011;10205;49.678;6.560;2023-06-24T10:45:02;15.73;;;3.95;;
20090;SDS011;10205;49.678;6.560;2023-06-24T10:47:41;15.55;;;4.13;;
20090;SDS011;10205;49.678;6.560;2023-06-24T10:50:10;6.43;;;3.70;;
20090;SDS011;10205;49.678;6.560;2023-06-24T10:52:39;8.65;;;3.42;;
20090;SDS011;10205;49.678;6.560;2023-06-24T10:55:08;16.30;;;4.38;;
20090;SDS011;10205;49.678;6.560;2023-06-24T10:57:39;11.07;;;3.83;;
20090;SDS011;10205;49.678;6.560;2023-06-24T11:00:08;12.65;;;4.35;;
20090;SDS011;10205;49.678;6.560;2023-06-24T11:02:37;11.32;;;4.25;;
20090;SDS011;10205;49.678;6.560;2023-06-24T11:05:05;10.82;;;4.22;;
20090;SDS011;10205;49.678;6.560;2023-06-24T11:07:34;8.52;;;3.92;;
20090;SDS011;10205;49.678;6.560;2023-06-24T11:10:04;10.52;;;3.70;;
20090;SDS011;10205;49.678;6.560;2023-06-24T11:12:35;10.93;;;4.22;;
20090;SDS011;10205;49.678;6.560;2023-06-24T11:15:04;8.27;;;3.78;;
20090;SDS011;10205;49.678;6.560;2023-06-24T11:17:35;6.78;;;3.67;;
20090;SDS011;10205;49.678;6.560;2023-06-24T11:20:06;6.55;;;3.50;;
20090;SDS011;10205;49.678;6.560;2023-06-24T11:22:35;8.00;;;3.72;;
20090;SDS011;10205;49.678;6.560;2023-06-24T11:25:03;4.55;;;3.22;;
20090;SDS011;10205;49.678;6.560;2023-06-24T11:27:31;6.18;;;3.28;;
20090;SDS011;10205;49.678;6.560;2023-06-24T11:29:59;5.90;;;3.30;;
20090;SDS011;10205;49.678;6.560;2023-06-24T11:32:36;3.47;;;2.95;;
20090;SDS011;10205;49.678;6.560;2023-06-24T11:35:03;3.80;;;2.95;;
20090;SDS011;10205;49.678;6.560;2023-06-24T11:37:32;4.75;;;3.17;;
20090;SDS011;10205;49.678;6.560;2023-06-24T11:40:00;6.03;;;3.72;;
20090;SDS011;10205;49.678;6.560;2023-06-24T11:42:30;6.20;;;3.13;;
20090;SDS011;10205;49.678;6.560;2023-06-24T11:45:00;3.10;;;2.80;;
20090;SDS011;10205;49.678;6.560;2023-06-24T11:47:30;4.00;;;3.40;;
20090;SDS011;10205;49.678;6.560;2023-06-24T11:50:01;4.75;;;3.63;;
20090;SDS011;10205;49.678;6.560;2023-06-24T11:52:39;3.25;;;2.95;;
20090;SDS011;10205;49.678;6.560;2023-06-24T11:55:12;3.58;;;3.00;;
20090;SDS011;10205;49.678;6.560;2023-06-24T11:57:49;3.17;;;2.97;;
20090;SDS011;10205;49.678;6.560;2023-06-24T12:00:21;3.97;;;2.72;;
20090;SDS011;10205;49.678;6.560;2023-06-24T12:02:51;3.22;;;2.42;;
20090;SDS011;10205;49.678;6.560;2023-06-24T12:05:24;4.55;;;3.00;;
20090;SDS011;10205;49.678;6.560;2023-06-24T12:07:54;3.83;;;2.90;;
20090;SDS011;10205;49.678;6.560;2023-06-24T12:10:26;2.90;;;2.67;;
20090;SDS011;10205;49.678;6.560;2023-06-24T12:12:55;2.90;;;2.70;;
20090;SDS011;10205;49.678;6.560;2023-06-24T12:15:24;3.70;;;2.97;;
20090;SDS011;10205;49.678;6.560;2023-06-24T12:17:51;3.85;;;3.15;;
20090;SDS011;10205;49.678;6.560;2023-06-24T12:20:18;3.28;;;2.97;;
20090;SDS011;10205;49.678;6.560;2023-06-24T12:22:48;6.00;;;3.13;;
20090;SDS011;10205;49.678;6.560;2023-06-24T12:25:16;3.28;;;2.97;;
20090;SDS011;10205;49.678;6.560;2023-06-24T12:27:44;2.70;;;2.50;;
20090;SDS011;10205;49.678;6.560;2023-06-24T12:30:12;3.25;;;2.95;;
20090;SDS011;10205;49.678;6.560;2023-06-24T12:32:41;3.20;;;2.90;;
20090;SDS011;10205;49.678;6.560;2023-06-24T12:35:09;3.47;;;2.75;;
20090;SDS011;10205;49.678;6.560;2023-06-24T12:37:36;3.40;;;3.10;;
20090;SDS011;10205;49.678;6.560;2023-06-24T12:40:06;3.53;;;3.10;;
20090;SDS011;10205;49.678;6.560;2023-06-24T12:42:34;3.28;;;3.00;;
20090;SDS011;10205;49.678;6.560;2023-06-24T12:45:01;5.53;;;2.78;;
20090;SDS011;10205;49.678;6.560;2023-06-24T12:47:29;3.22;;;2.92;;
20090;SDS011;10205;49.678;6.560;2023-06-24T12:49:57;3.40;;;3.10;;
20090;SDS011;10205;49.678;6.560;2023-06-24T12:52:24;4.00;;;2.78;;
20090;SDS011;10205;49.678;6.560;2023-06-24T12:54:51;3.10;;;2.80;;
20090;SDS011;10205;49.678;6.560;2023-06-24T12:57:20;2.78;;;2.58;;
20090;SDS011;10205;49.678;6.560;2023-06-24T12:59:47;2.95;;;2.65;;
20090;SDS011;10205;49.678;6.560;2023-06-24T13:02:14;3.03;;;2.60;;
20090;SDS011;10205;49.678;6.560;2023-06-24T13:04:42;3.15;;;2.85;;
20090;SDS011;10205;49.678;6.560;2023-06-24T13:07:09;3.45;;;3.15;;
20090;SDS011;10205;49.678;6.560;2023-06-24T13:09:36;3.03;;;2.75;;
20090;SDS011;10205;49.678;6.560;2023-06-24T13:12:04;2.90;;;2.63;;
20090;SDS011;10205;49.678;6.560;2023-06-24T13:14:34;3.08;;;2.78;;
20090;SDS011;10205;49.678;6.560;2023-06-24T13:17:01;3.28;;;2.95;;
20090;SDS011;10205;49.678;6.560;2023-06-24T13:19:29;3.00;;;2.70;;
20090;SDS011;10205;49.678;6.560;2023-06-24T13:25:38;3.20;;;2.90;;
20090;SDS011;10205;49.678;6.560;2023-06-24T13:28:05;3.22;;;2.92;;
20090;SDS011;10205;49.678;6.560;2023-06-24T13:30:34;3.20;;;2.90;;
20090;SDS011;10205;49.678;6.560;2023-06-24T13:33:01;2.83;;;2.63;;
20090;SDS011;10205;49.678;6.560;2023-06-24T13:35:29;4.00;;;2.72;;
20090;SDS011;10205;49.678;6.560;2023-06-24T13:37:56;2.97;;;2.70;;
20090;SDS011;10205;49.678;6.560;2023-06-24T13:40:24;3.20;;;2.92;;
20090;SDS011;10205;49.678;6.560;2023-06-24T13:42:51;3.10;;;2.85;;
20090;SDS011;10205;49.678;6.560;2023-06-24T13:45:19;3.10;;;2.90;;
20090;SDS011;10205;49.678;6.560;2023-06-24T13:47:47;2.80;;;2.60;;
20090;SDS011;10205;49.678;6.560;2023-06-24T13:50:15;3.22;;;2.80;;
20090;SDS011;10205;49.678;6.560;2023-06-24T13:52:42;3.38;;;3.00;;
20090;SDS011;10205;49.678;6.560;2023-06-24T13:55:09;3.20;;;3.00;;
20090;SDS011;10205;49.678;6.560;2023-06-24T13:57:36;3.05;;;2.85;;
20090;SDS011;10205;49.678;6.560;2023-06-24T14:00:04;3.08;;;2.88;;
20090;SDS011;10205;49.678;6.560;2023-06-24T14:02:34;3.65;;;3.05;;
20090;SDS011;10205;49.678;6.560;2023-06-24T14:05:03;3.30;;;3.10;;
20090;SDS011;10205;49.678;6.560;2023-06-24T14:07:31;3.00;;;2.78;;
20090;SDS011;10205;49.678;6.560;2023-06-24T14:09:59;2.88;;;2.67;;
20090;SDS011;10205;49.678;6.560;2023-06-24T14:12:27;2.75;;;2.55;;
20090;SDS011;10205;49.678;6.560;2023-06-24T14:14:54;3.08;;;2.88;;
20090;SDS011;10205;49.678;6.560;2023-06-24T14:17:21;3.30;;;3.08;;
20090;SDS011;10205;49.678;6.560;2023-06-24T14:19:48;3.13;;;2.92;;
20090;SDS011;10205;49.678;6.560;2023-06-24T14:22:17;3.05;;;2.80;;
20090;SDS011;10205;49.678;6.560;2023-06-24T14:24:45;3.10;;;2.80;;
20090;SDS011;10205;49.678;6.560;2023-06-24T14:27:13;3.10;;;2.80;;
20090;SDS011;10205;49.678;6.560;2023-06-24T14:29:40;3.08;;;2.88;;
20090;SDS011;10205;49.678;6.560;2023-06-24T14:32:08;3.17;;;2.88;;
20090;SDS011;10205;49.678;6.560;2023-06-24T14:34:35;3.20;;;2.90;;
20090;SDS011;10205;49.678;6.560;2023-06-24T14:37:04;3.40;;;3.10;;
20090;SDS011;10205;49.678;6.560;2023-06-24T14:39:33;3.10;;;2.90;;
20090;SDS011;10205;49.678;6.560;2023-06-24T14:42:00;3.05;;;2.80;;
20090;SDS011;10205;49.678;6.560;2023-06-24T14:44:27;3.85;;;3.15;;
20090;SDS011;10205;49.678;6.560;2023-06-24T14:46:54;5.18;;;3.28;;
20090;SDS011;10205;49.678;6.560;2023-06-24T14:49:22;3.28;;;2.97;;
20090;SDS011;10205;49.678;6.560;2023-06-24T14:51:51;3.17;;;2.97;;
20090;SDS011;10205;49.678;6.560;2023-06-24T14:54:18;3.28;;;2.97;;
20090;SDS011;10205;49.678;6.560;2023-06-24T14:56:47;3.65;;;3.35;;
20090;SDS011;10205;49.678;6.560;2023-06-24T14:59:14;3.25;;;3.05;;
20090;SDS011;10205;49.678;6.560;2023-06-24T15:01:42;2.72;;;2.53;;
20090;SDS011;10205;49.678;6.560;2023-06-24T15:04:09;2.85;;;2.65;;
20090;SDS011;10205;49.678;6.560;2023-06-24T15:06:36;2.90;;;2.70;;
20090;SDS011;10205;49.678;6.560;2023-06-24T15:09:03;3.78;;;3.47;;
20090;SDS011;10205;49.678;6.560;2023-06-24T15:11:31;3.25;;;2.97;;
20090;SDS011;10205;49.678;6.560;2023-06-24T15:13:59;3.40;;;3.10;;
20090;SDS011;10205;49.678;6.560;2023-06-24T15:16:26;3.47;;;3.17;;